Hornbeck, Louisiana
Current Conditions -  °F | °C
As of 10:56 PM on Wednesday 22 Oct 2014 (Local Time) from KAQV Reporting Station
Clear Clear  
Wind Chill: 62°   Ceiling: Unl
Heat Index: 62°   Visibility: 10mi
Dew Point: 52°   Wind: 5mph
Humidity: 70%   Direction: 30°NNE
Pressure: 30.13"   Gusts: NA
Location:  31.33°N, 93.4°W
Report Text: KAQV 230356Z AUTO 03004KT 10SM CLR 17/11 A3013 RMK AO2 SLP202 T01670111
Loading
Personal Weather Stations






























Interactive Weather Map
Tropical Storm Tracking
New forecast layout! Learn more

10-Day Weather Forecast

Advertisements
Track Severe Weather on mobile